LMJ113 EHAM-TNCM
Flight info
| Callsign | LMJ113 |
|---|---|
| Flight time | N/A |
| Altitude | 30000 |
| Route | BERGI L60 PENIL M144 BAGSO DCT LIMRI/M082F300 DCT 51N020W 49N030W 44N040W/M082F320 34N050W/M082F340 27N056W 22N060W DCT OBIKE L335 TRNKY |
| Aircraft | B77L/H-SDE1E2E3FGHIJ2J3J4J5M1RWXY/LB1D1 |
Departure
| Time | 2026-05-08 06:30 |
|---|---|
| Airport | Amsterdam Airport Schiphol (EHAM) |
Arrival
| Time | N/A |
|---|---|
| Airport | Princess Juliana International Airport (TNCM) |
| Time | Latitude | Longitude | Altitude | Speed | Heading |
|---|---|---|---|---|---|
| 2026-05-08 05:56 | 52.29518 | 4.74384 | 3 ft | 0 kts | 328° |
| 2026-05-08 06:13 | 52.29509 | 4.74393 | 3 ft | 2 kts | 328° |
| 2026-05-08 06:13 | 52.29496 | 4.74406 | 3 ft | 2 kts | 328° |
| 2026-05-08 06:14 | 52.29483 | 4.74417 | 4 ft | 2 kts | 343° |
| 2026-05-08 06:14 | 52.29469 | 4.74422 | 4 ft | 2 kts | 358° |
| 2026-05-08 06:14 | 52.29454 | 4.74420 | 5 ft | 2 kts | 12° |
| 2026-05-08 06:14 | 52.29439 | 4.74413 | 5 ft | 2 kts | 27° |
| 2026-05-08 06:15 | 52.29427 | 4.74400 | 5 ft | 2 kts | 40° |
| 2026-05-08 06:15 | 52.29417 | 4.74383 | 5 ft | 2 kts | 54° |
| 2026-05-08 06:15 | 52.29413 | 4.74374 | 5 ft | 1 kts | 59° |
| 2026-05-08 06:15 | 52.29412 | 4.74372 | 5 ft | 0 kts | 59° |
| 2026-05-08 06:20 | 52.29413 | 4.74374 | 5 ft | 2 kts | 57° |
| 2026-05-08 06:20 | 52.29442 | 4.74440 | 5 ft | 11 kts | 54° |
| 2026-05-08 06:21 | 52.29495 | 4.74578 | 5 ft | 10 kts | 58° |
| 2026-05-08 06:21 | 52.29532 | 4.74676 | 5 ft | 12 kts | 58° |
| 2026-05-08 06:21 | 52.29594 | 4.74840 | 5 ft | 20 kts | 59° |
| 2026-05-08 06:21 | 52.29660 | 4.75007 | 5 ft | 21 kts | 59° |
| 2026-05-08 06:22 | 52.29733 | 4.75204 | 5 ft | 19 kts | 54° |
| 2026-05-08 06:22 | 52.29826 | 4.75218 | 5 ft | 13 kts | 320° |
| 2026-05-08 06:22 | 52.29908 | 4.75069 | 6 ft | 21 kts | 309° |
| 2026-05-08 06:22 | 52.30023 | 4.74844 | 5 ft | 26 kts | 313° |
| 2026-05-08 06:23 | 52.30134 | 4.74643 | 1 ft | 25 kts | 312° |
| 2026-05-08 06:23 | 52.30228 | 4.74473 | 1 ft | 22 kts | 312° |
| 2026-05-08 06:23 | 52.30347 | 4.74255 | -4 ft | 15 kts | 311° |
| 2026-05-08 06:23 | 52.30376 | 4.74221 | -4 ft | 8 kts | 334° |
| 2026-05-08 06:24 | 52.30460 | 4.74193 | -4 ft | 16 kts | 359° |
| 2026-05-08 06:24 | 52.30599 | 4.74201 | -3 ft | 24 kts | 3° |
| 2026-05-08 06:24 | 52.30790 | 4.74219 | -2 ft | 30 kts | 3° |
| 2026-05-08 06:24 | 52.30937 | 4.74234 | -1 ft | 18 kts | 3° |
| 2026-05-08 06:25 | 52.31055 | 4.74245 | -1 ft | 15 kts | 3° |
| 2026-05-08 06:25 | 52.31156 | 4.74255 | 0 ft | 13 kts | 3° |
| 2026-05-08 06:25 | 52.31244 | 4.74263 | 0 ft | 11 kts | 3° |
| 2026-05-08 06:25 | 52.31322 | 4.74270 | 0 ft | 10 kts | 3° |
| 2026-05-08 06:26 | 52.31395 | 4.74277 | 0 ft | 11 kts | 3° |
| 2026-05-08 06:26 | 52.31478 | 4.74285 | 0 ft | 12 kts | 3° |
| 2026-05-08 06:26 | 52.31514 | 4.74288 | 0 ft | 1 kts | 3° |
| 2026-05-08 06:26 | 52.31523 | 4.74294 | 0 ft | 1 kts | 43° |
| 2026-05-08 06:27 | 52.31517 | 4.74336 | 0 ft | 7 kts | 112° |
| 2026-05-08 06:27 | 52.31495 | 4.74427 | 0 ft | 23 kts | 111° |
| 2026-05-08 06:27 | 52.31500 | 4.74642 | 0 ft | 13 kts | 38° |
| 2026-05-08 06:27 | 52.31537 | 4.74655 | 0 ft | 2 kts | 359° |
| 2026-05-08 06:28 | 52.31555 | 4.74655 | 0 ft | 2 kts | 359° |
| 2026-05-08 06:28 | 52.31574 | 4.74654 | 0 ft | 2 kts | 1° |
| 2026-05-08 06:28 | 52.31605 | 4.74660 | -1 ft | 8 kts | 8° |
| 2026-05-08 06:28 | 52.31652 | 4.74717 | -1 ft | 8 kts | 62° |
| 2026-05-08 06:29 | 52.31670 | 4.74828 | 0 ft | 14 kts | 82° |
| 2026-05-08 06:29 | 52.31696 | 4.75429 | 2 ft | 96 kts | 86° |
| 2026-05-08 06:29 | 52.31748 | 4.76994 | 11 ft | 176 kts | 87° |
| 2026-05-08 06:29 | 52.31813 | 4.79192 | 563 ft | 209 kts | 87° |
| 2026-05-08 06:30 | 52.31869 | 4.81521 | 2015 ft | 203 kts | 88° |
| 2026-05-08 06:30 | 52.31929 | 4.83729 | 2825 ft | 203 kts | 87° |
| 2026-05-08 06:30 | 52.31999 | 4.86118 | 3263 ft | 220 kts | 86° |
| 2026-05-08 06:30 | 52.32398 | 4.88589 | 3722 ft | 235 kts | 60° |
| 2026-05-08 06:31 | 52.33550 | 4.90573 | 4221 ft | 253 kts | 30° |
| 2026-05-08 06:31 | 52.35261 | 4.91315 | 4908 ft | 263 kts | 357° |
| 2026-05-08 06:31 | 52.36975 | 4.90396 | 5731 ft | 267 kts | 324° |
| 2026-05-08 06:31 | 52.38137 | 4.88065 | 6469 ft | 273 kts | 290° |
| 2026-05-08 06:32 | 52.38500 | 4.85036 | 7259 ft | 276 kts | 275° |
| 2026-05-08 06:32 | 52.38634 | 4.81915 | 8079 ft | 278 kts | 275° |
| 2026-05-08 06:32 | 52.39144 | 4.78897 | 8789 ft | 282 kts | 300° |
| 2026-05-08 06:32 | 52.40336 | 4.76361 | 9515 ft | 285 kts | 313° |
| 2026-05-08 06:33 | 52.41725 | 4.74052 | 10255 ft | 288 kts | 315° |
| 2026-05-08 06:33 | 52.43179 | 4.71705 | 10723 ft | 302 kts | 315° |
| 2026-05-08 06:33 | 52.44713 | 4.69218 | 11101 ft | 319 kts | 315° |
| 2026-05-08 06:33 | 52.46433 | 4.66797 | 11500 ft | 336 kts | 325° |
| 2026-05-08 06:34 | 52.48505 | 4.64881 | 11922 ft | 352 kts | 336° |
| 2026-05-08 06:34 | 52.50812 | 4.63353 | 12373 ft | 366 kts | 338° |
| 2026-05-08 06:34 | 52.53217 | 4.61815 | 12922 ft | 378 kts | 338° |
| 2026-05-08 06:34 | 52.55672 | 4.60234 | 13667 ft | 383 kts | 338° |
| 2026-05-08 06:35 | 52.58152 | 4.58631 | 14457 ft | 387 kts | 338° |
| 2026-05-08 06:35 | 52.60662 | 4.57003 | 15253 ft | 391 kts | 338° |
| 2026-05-08 06:35 | 52.63185 | 4.55362 | 16022 ft | 394 kts | 338° |
| 2026-05-08 06:35 | 52.65669 | 4.53467 | 16751 ft | 397 kts | 329° |
| 2026-05-08 06:36 | 52.67933 | 4.50872 | 17480 ft | 399 kts | 319° |
| 2026-05-08 06:36 | 52.69889 | 4.47636 | 18190 ft | 402 kts | 308° |
| 2026-05-08 06:36 | 52.71537 | 4.43933 | 18899 ft | 404 kts | 304° |
| 2026-05-08 06:36 | 52.73129 | 4.40121 | 19604 ft | 408 kts | 303° |
| 2026-05-08 06:37 | 52.74616 | 4.36147 | 20273 ft | 411 kts | 296° |
| 2026-05-08 06:37 | 52.75709 | 4.31806 | 20921 ft | 412 kts | 288° |
| 2026-05-08 06:37 | 52.76625 | 4.27323 | 21552 ft | 416 kts | 287° |
| 2026-05-08 06:37 | 52.77538 | 4.22791 | 22199 ft | 420 kts | 287° |
| 2026-05-08 06:38 | 52.78457 | 4.18217 | 22824 ft | 423 kts | 287° |
| 2026-05-08 06:38 | 52.79382 | 4.13606 | 23430 ft | 427 kts | 287° |
| 2026-05-08 06:38 | 52.80315 | 4.08951 | 24006 ft | 431 kts | 287° |
| 2026-05-08 06:38 | 52.81255 | 4.04250 | 24575 ft | 435 kts | 287° |
| 2026-05-08 06:39 | 52.82201 | 3.99511 | 25137 ft | 438 kts | 287° |
| 2026-05-08 06:39 | 52.83152 | 3.94734 | 25709 ft | 441 kts | 287° |
| 2026-05-08 06:39 | 52.84106 | 3.89930 | 26271 ft | 444 kts | 287° |
| 2026-05-08 06:39 | 52.85068 | 3.85078 | 26818 ft | 447 kts | 287° |
| 2026-05-08 06:40 | 52.86048 | 3.80120 | 27350 ft | 450 kts | 287° |
| 2026-05-08 06:40 | 52.87025 | 3.75163 | 27868 ft | 454 kts | 287° |
| 2026-05-08 06:40 | 52.88011 | 3.70153 | 28368 ft | 457 kts | 287° |
| 2026-05-08 06:40 | 52.88992 | 3.65148 | 28867 ft | 461 kts | 287° |
| 2026-05-08 06:41 | 52.89982 | 3.60090 | 29372 ft | 464 kts | 287° |
| 2026-05-08 06:41 | 52.90973 | 3.55012 | 30039 ft | 464 kts | 287° |
| 2026-05-08 06:41 | 52.91952 | 3.49988 | 30869 ft | 459 kts | 287° |
| 2026-05-08 06:41 | 52.92919 | 3.45010 | 31658 ft | 454 kts | 287° |
| 2026-05-08 06:42 | 52.93877 | 3.40065 | 32258 ft | 453 kts | 287° |
| 2026-05-08 06:42 | 52.94832 | 3.35116 | 32721 ft | 453 kts | 287° |
| 2026-05-08 06:42 | 52.95665 | 3.30792 | 33125 ft | 454 kts | 286° |
| 2026-05-08 06:42 | 52.96542 | 3.26234 | 33591 ft | 452 kts | 286° |
| 2026-05-08 06:43 | 52.97211 | 3.22744 | 33938 ft | 451 kts | 286° |
| 2026-05-08 06:43 | 52.98114 | 3.18027 | 34107 ft | 455 kts | 286° |
| 2026-05-08 06:43 | 52.99464 | 3.10950 | 34115 ft | 452 kts | 285° |
| 2026-05-08 06:44 | 53.01344 | 3.01054 | 34115 ft | 452 kts | 286° |
| 2026-05-08 06:44 | 53.03220 | 2.91125 | 34116 ft | 453 kts | 286° |
| 2026-05-08 06:45 | 53.05091 | 2.81168 | 34114 ft | 453 kts | 286° |
| 2026-05-08 06:45 | 53.06950 | 2.71227 | 34112 ft | 452 kts | 286° |
| 2026-05-08 06:46 | 53.08797 | 2.61294 | 34109 ft | 451 kts | 285° |
| 2026-05-08 06:46 | 53.10617 | 2.51333 | 34098 ft | 451 kts | 282° |
| 2026-05-08 06:47 | 53.11623 | 2.41101 | 34102 ft | 450 kts | 277° |
| 2026-05-08 06:47 | 53.12451 | 2.31004 | 34098 ft | 450 kts | 276° |
| 2026-05-08 06:48 | 53.13266 | 2.20963 | 34099 ft | 450 kts | 276° |
| 2026-05-08 06:48 | 53.14092 | 2.10670 | 34099 ft | 450 kts | 276° |
| 2026-05-08 06:49 | 53.14908 | 2.00388 | 34098 ft | 450 kts | 276° |
| 2026-05-08 06:49 | 53.15716 | 1.90098 | 34096 ft | 450 kts | 276° |
| 2026-05-08 06:50 | 53.16514 | 1.79807 | 34097 ft | 449 kts | 276° |
| 2026-05-08 06:50 | 53.17303 | 1.69525 | 34095 ft | 449 kts | 276° |
| 2026-05-08 06:51 | 53.18084 | 1.59227 | 34096 ft | 450 kts | 276° |
| 2026-05-08 06:51 | 53.18856 | 1.48922 | 34094 ft | 450 kts | 276° |
| 2026-05-08 06:52 | 53.19620 | 1.38603 | 34095 ft | 451 kts | 276° |
| 2026-05-08 06:52 | 53.20367 | 1.28388 | 34097 ft | 450 kts | 275° |
| 2026-05-08 06:53 | 53.21108 | 1.18131 | 34095 ft | 449 kts | 275° |
| 2026-05-08 06:53 | 53.21851 | 1.07723 | 34094 ft | 450 kts | 275° |
| 2026-05-08 06:54 | 53.22578 | 0.97419 | 34094 ft | 449 kts | 275° |
| 2026-05-08 06:54 | 53.23296 | 0.87101 | 34095 ft | 449 kts | 275° |
| 2026-05-08 06:55 | 53.24005 | 0.76774 | 34088 ft | 449 kts | 275° |
| 2026-05-08 06:55 | 53.24706 | 0.66449 | 34090 ft | 449 kts | 275° |
| 2026-05-08 06:56 | 53.25397 | 0.56114 | 34093 ft | 449 kts | 275° |
| 2026-05-08 06:56 | 53.26081 | 0.45773 | 34093 ft | 449 kts | 275° |
| 2026-05-08 06:57 | 53.26755 | 0.35424 | 34088 ft | 449 kts | 275° |
| 2026-05-08 06:57 | 53.27420 | 0.25086 | 34090 ft | 448 kts | 275° |
| 2026-05-08 06:58 | 53.28076 | 0.14728 | 34094 ft | 448 kts | 275° |
| 2026-05-08 06:58 | 53.28721 | 0.04417 | 34087 ft | 448 kts | 275° |
| 2026-05-08 06:59 | 53.29653 | -0.05855 | 34086 ft | 449 kts | 279° |
| 2026-05-08 06:59 | 53.30758 | -0.16103 | 34074 ft | 448 kts | 279° |
| 2026-05-08 07:00 | 53.31836 | -0.26370 | 34080 ft | 449 kts | 279° |
| 2026-05-08 07:00 | 53.32895 | -0.36642 | 34082 ft | 448 kts | 279° |
| 2026-05-08 07:01 | 53.33940 | -0.46938 | 34072 ft | 447 kts | 279° |
| 2026-05-08 07:01 | 53.34968 | -0.57182 | 34067 ft | 448 kts | 279° |
| 2026-05-08 07:02 | 53.35990 | -0.67469 | 34062 ft | 447 kts | 278° |
| 2026-05-08 07:02 | 53.37006 | -0.77783 | 34059 ft | 447 kts | 278° |
| 2026-05-08 07:03 | 53.38009 | -0.88070 | 34058 ft | 447 kts | 278° |
| 2026-05-08 07:03 | 53.39006 | -0.98397 | 34059 ft | 447 kts | 278° |
| 2026-05-08 07:04 | 53.39989 | -1.08682 | 34049 ft | 445 kts | 279° |
| 2026-05-08 07:04 | 53.40960 | -1.18931 | 34049 ft | 445 kts | 279° |
| 2026-05-08 07:05 | 53.41919 | -1.29165 | 34047 ft | 443 kts | 279° |
| 2026-05-08 07:05 | 53.42868 | -1.39388 | 34046 ft | 443 kts | 279° |
| 2026-05-08 07:06 | 53.43809 | -1.49621 | 34038 ft | 443 kts | 279° |
| 2026-05-08 07:06 | 53.44736 | -1.59809 | 34035 ft | 442 kts | 279° |
| 2026-05-08 07:07 | 53.45660 | -1.70049 | 34041 ft | 441 kts | 278° |
| 2026-05-08 07:07 | 53.46567 | -1.80213 | 34037 ft | 439 kts | 278° |
| 2026-05-08 07:08 | 53.47469 | -1.90421 | 34033 ft | 440 kts | 278° |
| 2026-05-08 07:08 | 53.48358 | -2.00581 | 34037 ft | 438 kts | 279° |
| 2026-05-08 07:09 | 53.49238 | -2.10733 | 34044 ft | 439 kts | 279° |
| 2026-05-08 07:09 | 53.50102 | -2.20817 | 34047 ft | 436 kts | 278° |
| 2026-05-08 07:10 | 53.50959 | -2.30922 | 34046 ft | 435 kts | 278° |
| 2026-05-08 07:10 | 53.51805 | -2.40991 | 34055 ft | 434 kts | 278° |
| 2026-05-08 07:11 | 53.52644 | -2.51092 | 34053 ft | 433 kts | 278° |
| 2026-05-08 07:11 | 53.53466 | -2.61096 | 34056 ft | 432 kts | 278° |
| 2026-05-08 07:12 | 53.54284 | -2.71147 | 34062 ft | 431 kts | 278° |
| 2026-05-08 07:12 | 53.55094 | -2.81212 | 34059 ft | 431 kts | 277° |
| 2026-05-08 07:13 | 53.55888 | -2.91187 | 34054 ft | 429 kts | 277° |
| 2026-05-08 07:13 | 53.56671 | -3.01129 | 34058 ft | 429 kts | 277° |
| 2026-05-08 07:14 | 53.57447 | -3.11085 | 34056 ft | 429 kts | 277° |
| 2026-05-08 07:14 | 53.58213 | -3.21036 | 34055 ft | 427 kts | 277° |
| 2026-05-08 07:15 | 53.58969 | -3.30953 | 34058 ft | 428 kts | 277° |
| 2026-05-08 07:15 | 53.59715 | -3.40867 | 34057 ft | 426 kts | 277° |
| 2026-05-08 07:16 | 53.60451 | -3.50753 | 34045 ft | 424 kts | 277° |
| 2026-05-08 07:16 | 53.61177 | -3.60611 | 34047 ft | 424 kts | 277° |
| 2026-05-08 07:17 | 53.61837 | -3.70514 | 34049 ft | 425 kts | 274° |
| 2026-05-08 07:17 | 53.62222 | -3.80420 | 34035 ft | 423 kts | 273° |
| 2026-05-08 07:18 | 53.62609 | -3.90321 | 34041 ft | 425 kts | 273° |
| 2026-05-08 07:18 | 53.62996 | -4.00198 | 34044 ft | 421 kts | 273° |
| 2026-05-08 07:19 | 53.63377 | -4.10013 | 34038 ft | 422 kts | 273° |
| 2026-05-08 07:19 | 53.63754 | -4.19857 | 34038 ft | 422 kts | 273° |
| 2026-05-08 07:20 | 53.64123 | -4.29685 | 34037 ft | 421 kts | 273° |
| 2026-05-08 07:20 | 53.64484 | -4.39496 | 34033 ft | 421 kts | 273° |
| 2026-05-08 07:21 | 53.64837 | -4.49305 | 34032 ft | 420 kts | 273° |
| 2026-05-08 07:21 | 53.65183 | -4.59123 | 34032 ft | 420 kts | 273° |
| 2026-05-08 07:22 | 53.65519 | -4.68925 | 34039 ft | 420 kts | 272° |
| 2026-05-08 07:22 | 53.65844 | -4.78611 | 34037 ft | 419 kts | 272° |
| 2026-05-08 07:23 | 53.66165 | -4.88389 | 34038 ft | 417 kts | 272° |
| 2026-05-08 07:23 | 53.66481 | -4.98125 | 34036 ft | 418 kts | 272° |
| 2026-05-08 07:24 | 53.66788 | -5.07863 | 34033 ft | 416 kts | 272° |
| 2026-05-08 07:24 | 53.67086 | -5.17600 | 34029 ft | 416 kts | 272° |
| 2026-05-08 07:25 | 53.67370 | -5.27356 | 34031 ft | 416 kts | 272° |
| 2026-05-08 07:26 | 53.67781 | -5.41978 | 34029 ft | 415 kts | 271° |
| 2026-05-08 07:26 | 53.67716 | -5.51666 | 34024 ft | 414 kts | 261° |
| 2026-05-08 07:27 | 53.66532 | -5.61123 | 34032 ft | 414 kts | 258° |
| 2026-05-08 07:27 | 53.65286 | -5.70524 | 34039 ft | 412 kts | 257° |
| 2026-05-08 07:28 | 53.64023 | -5.79977 | 34034 ft | 413 kts | 257° |
| 2026-05-08 07:28 | 53.62759 | -5.89385 | 34029 ft | 412 kts | 257° |
| 2026-05-08 07:29 | 53.61487 | -5.98791 | 34031 ft | 411 kts | 257° |
| 2026-05-08 07:29 | 53.60207 | -6.08187 | 34025 ft | 412 kts | 257° |
| 2026-05-08 07:30 | 53.58916 | -6.17611 | 34023 ft | 411 kts | 257° |
| 2026-05-08 07:30 | 53.57623 | -6.26988 | 34018 ft | 410 kts | 257° |
| 2026-05-08 07:31 | 53.56323 | -6.36360 | 34024 ft | 411 kts | 257° |
| 2026-05-08 07:31 | 53.55020 | -6.45695 | 34020 ft | 409 kts | 256° |
| 2026-05-08 07:32 | 53.53709 | -6.55025 | 34018 ft | 410 kts | 257° |
| 2026-05-08 07:32 | 53.52393 | -6.64338 | 34017 ft | 409 kts | 257° |
| 2026-05-08 07:33 | 53.51064 | -6.73684 | 34032 ft | 410 kts | 256° |
| 2026-05-08 07:33 | 53.49735 | -6.82970 | 34025 ft | 409 kts | 256° |
| 2026-05-08 07:34 | 53.48402 | -6.92233 | 34027 ft | 409 kts | 255° |
| 2026-05-08 07:34 | 53.47062 | -7.01489 | 34027 ft | 409 kts | 256° |
| 2026-05-08 07:35 | 53.45714 | -7.10743 | 34030 ft | 410 kts | 255° |
| 2026-05-08 07:35 | 53.44351 | -7.20040 | 34032 ft | 408 kts | 255° |
| 2026-05-08 07:36 | 53.42987 | -7.29297 | 34028 ft | 408 kts | 255° |
| 2026-05-08 07:36 | 53.41620 | -7.38515 | 34027 ft | 410 kts | 255° |
| 2026-05-08 07:37 | 53.40239 | -7.47779 | 34026 ft | 408 kts | 255° |
| 2026-05-08 07:37 | 53.38851 | -7.57028 | 34018 ft | 409 kts | 255° |
| 2026-05-08 07:38 | 53.37454 | -7.66286 | 34031 ft | 408 kts | 254° |
| 2026-05-08 07:38 | 53.36054 | -7.75515 | 34034 ft | 408 kts | 255° |
| 2026-05-08 07:39 | 53.34654 | -7.84684 | 34032 ft | 407 kts | 254° |
| 2026-05-08 07:39 | 53.33248 | -7.93850 | 34028 ft | 407 kts | 254° |
| 2026-05-08 07:40 | 53.31836 | -8.02997 | 34028 ft | 406 kts | 254° |
| 2026-05-08 07:40 | 53.30420 | -8.12116 | 34035 ft | 407 kts | 254° |
| 2026-05-08 07:41 | 53.28990 | -8.21279 | 34029 ft | 407 kts | 254° |
| 2026-05-08 07:41 | 53.27554 | -8.30428 | 34035 ft | 406 kts | 254° |
| 2026-05-08 07:42 | 53.26116 | -8.39539 | 34030 ft | 407 kts | 254° |
| 2026-05-08 07:42 | 53.24662 | -8.48699 | 34033 ft | 408 kts | 254° |
| 2026-05-08 07:43 | 53.23207 | -8.57820 | 34031 ft | 406 kts | 254° |
| 2026-05-08 07:43 | 53.21736 | -8.66986 | 34042 ft | 409 kts | 253° |
| 2026-05-08 07:44 | 53.20265 | -8.76107 | 34038 ft | 406 kts | 253° |
| 2026-05-08 07:44 | 53.18787 | -8.85214 | 34039 ft | 408 kts | 253° |
| 2026-05-08 07:45 | 53.17308 | -8.94285 | 34028 ft | 406 kts | 253° |
| 2026-05-08 07:45 | 53.15824 | -9.03341 | 34034 ft | 406 kts | 253° |
| 2026-05-08 07:46 | 53.14335 | -9.12373 | 34029 ft | 406 kts | 253° |
| 2026-05-08 07:46 | 53.12835 | -9.21427 | 34028 ft | 406 kts | 253° |
| 2026-05-08 07:47 | 53.11328 | -9.30472 | 34032 ft | 406 kts | 253° |
| 2026-05-08 07:47 | 53.09817 | -9.39499 | 34033 ft | 406 kts | 253° |
| 2026-05-08 07:48 | 53.08293 | -9.48552 | 34027 ft | 407 kts | 253° |
| 2026-05-08 07:48 | 53.06767 | -9.57571 | 34027 ft | 405 kts | 253° |
| 2026-05-08 07:49 | 53.05232 | -9.66595 | 34035 ft | 408 kts | 252° |
| 2026-05-08 07:49 | 53.03688 | -9.75629 | 34049 ft | 407 kts | 252° |
| 2026-05-08 07:50 | 53.02139 | -9.84645 | 34045 ft | 408 kts | 251° |
| 2026-05-08 07:50 | 53.00578 | -9.93681 | 34045 ft | 408 kts | 252° |
| 2026-05-08 07:51 | 52.99006 | -10.02741 | 34051 ft | 409 kts | 251° |
| 2026-05-08 07:51 | 52.97432 | -10.11762 | 34047 ft | 409 kts | 251° |
| 2026-05-08 07:52 | 52.95846 | -10.20804 | 34043 ft | 409 kts | 251° |
| 2026-05-08 07:52 | 52.94259 | -10.29810 | 34043 ft | 408 kts | 251° |
| 2026-05-08 07:53 | 52.92658 | -10.38851 | 34037 ft | 407 kts | 251° |
| 2026-05-08 07:53 | 52.91055 | -10.47854 | 34039 ft | 409 kts | 251° |
| 2026-05-08 07:54 | 52.89438 | -10.56891 | 34046 ft | 408 kts | 251° |
| 2026-05-08 07:54 | 52.87818 | -10.65897 | 34051 ft | 408 kts | 251° |
| 2026-05-08 07:55 | 52.86201 | -10.74850 | 34053 ft | 409 kts | 250° |
| 2026-05-08 07:55 | 52.84572 | -10.83819 | 34055 ft | 408 kts | 250° |
| 2026-05-08 07:56 | 52.82934 | -10.92797 | 34052 ft | 409 kts | 250° |
| 2026-05-08 07:56 | 52.81293 | -11.01747 | 34049 ft | 408 kts | 250° |
| 2026-05-08 07:57 | 52.79638 | -11.10725 | 34047 ft | 410 kts | 250° |
| 2026-05-08 07:57 | 52.77967 | -11.19756 | 34048 ft | 408 kts | 250° |
| 2026-05-08 07:58 | 52.76288 | -11.28776 | 34043 ft | 411 kts | 250° |
| 2026-05-08 07:58 | 52.74607 | -11.37769 | 34042 ft | 410 kts | 250° |
| 2026-05-08 07:59 | 52.72910 | -11.46798 | 34040 ft | 411 kts | 250° |
| 2026-05-08 07:59 | 52.71216 | -11.55774 | 34044 ft | 410 kts | 250° |
| 2026-05-08 08:00 | 52.69512 | -11.64757 | 34041 ft | 411 kts | 250° |
| 2026-05-08 08:00 | 52.67805 | -11.73718 | 34050 ft | 410 kts | 249° |
| 2026-05-08 08:01 | 52.66093 | -11.82656 | 34048 ft | 412 kts | 249° |
| 2026-05-08 08:01 | 52.64374 | -11.91592 | 34050 ft | 411 kts | 249° |
| 2026-05-08 08:02 | 52.62649 | -12.00518 | 34050 ft | 411 kts | 249° |
| 2026-05-08 08:02 | 52.60914 | -12.09451 | 34051 ft | 412 kts | 249° |
| 2026-05-08 08:03 | 52.59166 | -12.18412 | 34055 ft | 412 kts | 249° |
| 2026-05-08 08:03 | 52.57401 | -12.27419 | 34056 ft | 412 kts | 249° |
| 2026-05-08 08:04 | 52.55634 | -12.36392 | 34050 ft | 413 kts | 249° |
| 2026-05-08 08:04 | 52.53861 | -12.45354 | 34052 ft | 411 kts | 249° |
| 2026-05-08 08:05 | 52.52078 | -12.54325 | 34039 ft | 413 kts | 249° |
| 2026-05-08 08:05 | 52.50293 | -12.63262 | 34040 ft | 412 kts | 249° |
| 2026-05-08 08:06 | 52.48499 | -12.72208 | 34051 ft | 412 kts | 248° |
| 2026-05-08 08:06 | 52.46699 | -12.81141 | 34047 ft | 413 kts | 248° |
| 2026-05-08 08:07 | 52.44900 | -12.90030 | 34050 ft | 412 kts | 248° |
| 2026-05-08 08:07 | 52.43090 | -12.98928 | 34050 ft | 413 kts | 248° |
| 2026-05-08 08:08 | 52.41270 | -13.07839 | 34046 ft | 413 kts | 248° |
| 2026-05-08 08:08 | 52.39443 | -13.16746 | 34045 ft | 413 kts | 248° |
| 2026-05-08 08:09 | 52.37597 | -13.25702 | 34037 ft | 414 kts | 248° |
| 2026-05-08 08:09 | 52.35754 | -13.34604 | 34051 ft | 412 kts | 248° |
| 2026-05-08 08:10 | 52.33903 | -13.43503 | 34045 ft | 414 kts | 248° |
| 2026-05-08 08:10 | 52.32047 | -13.52390 | 34042 ft | 413 kts | 248° |
| 2026-05-08 08:11 | 52.30179 | -13.61294 | 34039 ft | 415 kts | 248° |
| 2026-05-08 08:11 | 52.28311 | -13.70156 | 34044 ft | 413 kts | 247° |
| 2026-05-08 08:12 | 52.26433 | -13.79031 | 34041 ft | 415 kts | 247° |
| 2026-05-08 08:12 | 52.24553 | -13.87875 | 34048 ft | 414 kts | 247° |
| 2026-05-08 08:13 | 52.22655 | -13.96762 | 34041 ft | 415 kts | 247° |
| 2026-05-08 08:13 | 52.20755 | -14.05623 | 34035 ft | 415 kts | 247° |
| 2026-05-08 08:14 | 52.18844 | -14.14495 | 34034 ft | 417 kts | 247° |
| 2026-05-08 08:14 | 52.16920 | -14.23390 | 34031 ft | 416 kts | 247° |
| 2026-05-08 08:15 | 52.14992 | -14.32265 | 34045 ft | 417 kts | 247° |
| 2026-05-08 08:15 | 52.13048 | -14.41175 | 34044 ft | 417 kts | 247° |
| 2026-05-08 08:16 | 52.11097 | -14.50075 | 34056 ft | 418 kts | 247° |
| 2026-05-08 08:16 | 52.09154 | -14.58905 | 34045 ft | 415 kts | 247° |
| 2026-05-08 08:17 | 52.07191 | -14.67785 | 34047 ft | 418 kts | 246° |
| 2026-05-08 08:17 | 52.05233 | -14.76604 | 34047 ft | 417 kts | 246° |
| 2026-05-08 08:18 | 52.03264 | -14.85437 | 34053 ft | 418 kts | 246° |
| 2026-05-08 08:18 | 52.01272 | -14.94337 | 34050 ft | 418 kts | 246° |
| 2026-05-08 08:19 | 51.99329 | -15.03248 | 34037 ft | 423 kts | 250° |
| 2026-05-08 08:19 | 51.97761 | -15.12408 | 34044 ft | 423 kts | 251° |
| 2026-05-08 08:20 | 51.96178 | -15.21567 | 34045 ft | 422 kts | 250° |
| 2026-05-08 08:20 | 51.94573 | -15.30708 | 34043 ft | 424 kts | 250° |
| 2026-05-08 08:21 | 51.92943 | -15.39899 | 34040 ft | 424 kts | 250° |
| 2026-05-08 08:21 | 51.91309 | -15.49042 | 34034 ft | 424 kts | 250° |
| 2026-05-08 08:22 | 51.89668 | -15.58172 | 34045 ft | 423 kts | 250° |
| 2026-05-08 08:22 | 51.88016 | -15.67303 | 34045 ft | 426 kts | 250° |
| 2026-05-08 08:23 | 51.86362 | -15.76407 | 34054 ft | 423 kts | 249° |
| 2026-05-08 08:23 | 51.84693 | -15.85538 | 34051 ft | 424 kts | 249° |
| 2026-05-08 08:24 | 51.83013 | -15.94689 | 34042 ft | 425 kts | 249° |
| 2026-05-08 08:24 | 51.81333 | -16.03794 | 34036 ft | 424 kts | 249° |
| 2026-05-08 08:25 | 51.79643 | -16.12908 | 34041 ft | 425 kts | 249° |
| 2026-05-08 08:25 | 51.77937 | -16.22057 | 34037 ft | 426 kts | 249° |
| 2026-05-08 08:26 | 51.76210 | -16.31275 | 34041 ft | 427 kts | 250° |
| 2026-05-08 08:26 | 51.74480 | -16.40467 | 34035 ft | 430 kts | 250° |
| 2026-05-08 08:27 | 51.72732 | -16.49713 | 34030 ft | 428 kts | 250° |
| 2026-05-08 08:27 | 51.70980 | -16.58925 | 34026 ft | 430 kts | 250° |
| 2026-05-08 08:28 | 51.69223 | -16.68130 | 34027 ft | 427 kts | 249° |
| 2026-05-08 08:28 | 51.67466 | -16.77280 | 34033 ft | 430 kts | 249° |
| 2026-05-08 08:29 | 51.65696 | -16.86457 | 34019 ft | 431 kts | 249° |
| 2026-05-08 08:29 | 51.63916 | -16.95644 | 34027 ft | 432 kts | 249° |
| 2026-05-08 08:30 | 51.62127 | -17.04831 | 34013 ft | 433 kts | 249° |
| 2026-05-08 08:30 | 51.59415 | -17.18668 | 34001 ft | 437 kts | 250° |
| 2026-05-08 08:31 | 51.57585 | -17.27961 | 34001 ft | 436 kts | 249° |
| 2026-05-08 08:31 | 51.55739 | -17.37277 | 33997 ft | 437 kts | 250° |
| 2026-05-08 08:32 | 51.53887 | -17.46587 | 34006 ft | 438 kts | 250° |
| 2026-05-08 08:32 | 51.52029 | -17.55880 | 34009 ft | 438 kts | 250° |
| 2026-05-08 08:33 | 51.50157 | -17.65196 | 33986 ft | 439 kts | 249° |
| 2026-05-08 08:33 | 51.48276 | -17.74518 | 33996 ft | 441 kts | 249° |
| 2026-05-08 08:34 | 51.46379 | -17.83872 | 33994 ft | 442 kts | 249° |
| 2026-05-08 08:34 | 51.44472 | -17.93226 | 33992 ft | 445 kts | 249° |
| 2026-05-08 08:35 | 51.42551 | -18.02612 | 33987 ft | 443 kts | 249° |
| 2026-05-08 08:35 | 51.40612 | -18.12038 | 33993 ft | 445 kts | 249° |
| 2026-05-08 08:36 | 51.38676 | -18.21406 | 33995 ft | 445 kts | 249° |
| 2026-05-08 08:36 | 51.36721 | -18.30817 | 33995 ft | 447 kts | 250° |
| 2026-05-08 08:37 | 51.34766 | -18.40189 | 33995 ft | 446 kts | 249° |
| 2026-05-08 08:37 | 51.32800 | -18.49567 | 34008 ft | 448 kts | 250° |
| 2026-05-08 08:38 | 51.30819 | -18.58972 | 33996 ft | 448 kts | 250° |
| 2026-05-08 08:38 | 51.28818 | -18.68427 | 33998 ft | 450 kts | 249° |
| 2026-05-08 08:39 | 51.26816 | -18.77849 | 33996 ft | 452 kts | 249° |
| 2026-05-08 08:39 | 51.24788 | -18.87342 | 33992 ft | 452 kts | 249° |
| 2026-05-08 08:40 | 51.22755 | -18.96817 | 33998 ft | 453 kts | 250° |
| 2026-05-08 08:40 | 51.20717 | -19.06274 | 33979 ft | 452 kts | 250° |
| 2026-05-08 08:41 | 51.18660 | -19.15769 | 33979 ft | 454 kts | 250° |
| 2026-05-08 08:41 | 51.16602 | -19.25228 | 33976 ft | 452 kts | 250° |
| 2026-05-08 08:42 | 51.14530 | -19.34708 | 34011 ft | 455 kts | 250° |
| 2026-05-08 08:42 | 51.12446 | -19.44202 | 34003 ft | 455 kts | 250° |
| 2026-05-08 08:43 | 51.10347 | -19.53714 | 33979 ft | 458 kts | 250° |
| 2026-05-08 08:43 | 51.08237 | -19.63235 | 34012 ft | 460 kts | 250° |
| 2026-05-08 08:44 | 51.06103 | -19.72822 | 34003 ft | 460 kts | 249° |
| 2026-05-08 08:44 | 51.03963 | -19.82392 | 34005 ft | 462 kts | 250° |
| 2026-05-08 08:45 | 51.01812 | -19.91968 | 34007 ft | 461 kts | 250° |
| 2026-05-08 08:45 | 50.99658 | -20.01533 | 34007 ft | 461 kts | 251° |
| 2026-05-08 08:46 | 50.98131 | -20.11385 | 34012 ft | 462 kts | 257° |
| 2026-05-08 08:46 | 50.96705 | -20.21282 | 34015 ft | 463 kts | 257° |
| 2026-05-08 08:47 | 50.95238 | -20.31158 | 34007 ft | 462 kts | 256° |
| 2026-05-08 08:47 | 50.93740 | -20.41054 | 34017 ft | 463 kts | 256° |
| 2026-05-08 08:48 | 50.92225 | -20.50931 | 34009 ft | 464 kts | 257° |
| 2026-05-08 08:48 | 50.90693 | -20.60829 | 34012 ft | 464 kts | 257° |
| 2026-05-08 08:49 | 50.89142 | -20.70771 | 34014 ft | 466 kts | 256° |
| 2026-05-08 08:49 | 50.87581 | -20.80710 | 34008 ft | 465 kts | 256° |
| 2026-05-08 08:50 | 50.86011 | -20.90643 | 34018 ft | 467 kts | 256° |
| 2026-05-08 08:50 | 50.84428 | -21.00591 | 34027 ft | 467 kts | 257° |
| 2026-05-08 08:51 | 50.82831 | -21.10568 | 34050 ft | 468 kts | 257° |
| 2026-05-08 08:51 | 50.81232 | -21.20493 | 34049 ft | 468 kts | 257° |
| 2026-05-08 08:52 | 50.79622 | -21.30429 | 34050 ft | 468 kts | 257° |
| 2026-05-08 08:52 | 50.78007 | -21.40337 | 34059 ft | 468 kts | 257° |
| 2026-05-08 08:53 | 50.76378 | -21.50274 | 34050 ft | 469 kts | 257° |
| 2026-05-08 08:53 | 50.74736 | -21.60234 | 34058 ft | 470 kts | 257° |
| 2026-05-08 08:54 | 50.73084 | -21.70193 | 34066 ft | 470 kts | 256° |
| 2026-05-08 08:54 | 50.71415 | -21.80193 | 34066 ft | 471 kts | 257° |
| 2026-05-08 08:55 | 50.69742 | -21.90163 | 34065 ft | 472 kts | 257° |
| 2026-05-08 08:55 | 50.68056 | -22.00151 | 34061 ft | 474 kts | 257° |
| 2026-05-08 08:56 | 50.66358 | -22.10154 | 34072 ft | 474 kts | 257° |
| 2026-05-08 08:56 | 50.64650 | -22.20154 | 34078 ft | 474 kts | 257° |
| 2026-05-08 08:57 | 50.62933 | -22.30153 | 34083 ft | 475 kts | 257° |
| 2026-05-08 08:57 | 50.61205 | -22.40156 | 34093 ft | 476 kts | 257° |
| 2026-05-08 08:58 | 50.59468 | -22.50152 | 34087 ft | 475 kts | 257° |
| 2026-05-08 08:58 | 50.57724 | -22.60137 | 34098 ft | 475 kts | 258° |
| 2026-05-08 08:59 | 50.55969 | -22.70127 | 34100 ft | 476 kts | 257° |
| 2026-05-08 08:59 | 50.54202 | -22.80130 | 34102 ft | 477 kts | 257° |
| 2026-05-08 09:00 | 50.52424 | -22.90140 | 34111 ft | 478 kts | 257° |
| 2026-05-08 09:00 | 50.50629 | -23.00190 | 34118 ft | 479 kts | 257° |
| 2026-05-08 09:01 | 50.48824 | -23.10238 | 34121 ft | 479 kts | 257° |
| 2026-05-08 09:01 | 50.47011 | -23.20271 | 34125 ft | 480 kts | 257° |
| 2026-05-08 09:02 | 50.45193 | -23.30276 | 34124 ft | 477 kts | 258° |
| 2026-05-08 09:02 | 50.43375 | -23.40234 | 34130 ft | 477 kts | 258° |
| 2026-05-08 09:03 | 50.41545 | -23.50199 | 34142 ft | 478 kts | 258° |
| 2026-05-08 09:03 | 50.39707 | -23.60156 | 34142 ft | 477 kts | 258° |
| 2026-05-08 09:04 | 50.37856 | -23.70127 | 34150 ft | 478 kts | 257° |
| 2026-05-08 09:04 | 50.35997 | -23.80086 | 34158 ft | 479 kts | 257° |
| 2026-05-08 09:05 | 50.34125 | -23.90066 | 34158 ft | 479 kts | 258° |
| 2026-05-08 09:05 | 50.32247 | -24.00022 | 34166 ft | 479 kts | 258° |
| 2026-05-08 09:06 | 50.30358 | -24.09983 | 34173 ft | 479 kts | 258° |
| 2026-05-08 09:06 | 50.28461 | -24.19932 | 34176 ft | 479 kts | 258° |
| 2026-05-08 09:07 | 50.26555 | -24.29878 | 34167 ft | 481 kts | 258° |
| 2026-05-08 09:07 | 50.24634 | -24.39850 | 34159 ft | 482 kts | 258° |
| 2026-05-08 09:08 | 50.22706 | -24.49803 | 34160 ft | 480 kts | 259° |
| 2026-05-08 09:08 | 50.20770 | -24.59754 | 34168 ft | 482 kts | 259° |
| 2026-05-08 09:09 | 50.18819 | -24.69721 | 34173 ft | 482 kts | 258° |
| 2026-05-08 09:09 | 50.16856 | -24.79705 | 34177 ft | 484 kts | 258° |
| 2026-05-08 09:10 | 50.14878 | -24.89705 | 34180 ft | 484 kts | 258° |
| 2026-05-08 09:10 | 50.12888 | -24.99718 | 34194 ft | 483 kts | 259° |
| 2026-05-08 09:11 | 50.10897 | -25.09682 | 34198 ft | 483 kts | 259° |
| 2026-05-08 09:11 | 50.08895 | -25.19652 | 34196 ft | 481 kts | 259° |
| 2026-05-08 09:12 | 50.06891 | -25.29583 | 34205 ft | 484 kts | 259° |
| 2026-05-08 09:12 | 50.04873 | -25.39535 | 34205 ft | 485 kts | 259° |
| 2026-05-08 09:13 | 50.02848 | -25.49463 | 34208 ft | 482 kts | 259° |
| 2026-05-08 09:13 | 50.00816 | -25.59381 | 34211 ft | 482 kts | 260° |
| 2026-05-08 09:14 | 49.98777 | -25.69283 | 34220 ft | 483 kts | 259° |
| 2026-05-08 09:14 | 49.96721 | -25.79221 | 34224 ft | 486 kts | 259° |
| 2026-05-08 09:15 | 49.94652 | -25.89163 | 34224 ft | 485 kts | 259° |
| 2026-05-08 09:15 | 49.92571 | -25.99122 | 34243 ft | 485 kts | 260° |
| 2026-05-08 09:16 | 49.90487 | -26.09045 | 34238 ft | 484 kts | 260° |
| 2026-05-08 09:16 | 49.88405 | -26.18902 | 34231 ft | 482 kts | 260° |
| 2026-05-08 09:17 | 49.86321 | -26.28728 | 34235 ft | 482 kts | 260° |
| 2026-05-08 09:17 | 49.84231 | -26.38537 | 34239 ft | 483 kts | 261° |
| 2026-05-08 09:18 | 49.82128 | -26.48351 | 34235 ft | 482 kts | 261° |
| 2026-05-08 09:18 | 49.79999 | -26.58249 | 34238 ft | 480 kts | 261° |
| 2026-05-08 09:19 | 49.77870 | -26.68096 | 34237 ft | 482 kts | 260° |
| 2026-05-08 09:19 | 49.75743 | -26.77882 | 34252 ft | 480 kts | 261° |
| 2026-05-08 09:20 | 49.73628 | -26.87566 | 34246 ft | 478 kts | 261° |
| 2026-05-08 09:20 | 49.71503 | -26.97258 | 34265 ft | 478 kts | 261° |
| 2026-05-08 09:21 | 49.69361 | -27.06983 | 34253 ft | 481 kts | 261° |